createdAt,value
2018-04-12T00:00:02.166Z,10.20
2018-04-12T00:01:08.932Z,10.30
2018-04-12T00:02:15.692Z,10.40
2018-04-12T00:03:22.490Z,10.20
2018-04-12T00:04:29.322Z,10.60
2018-04-12T00:05:36.183Z,11.40
2018-04-12T00:06:42.949Z,12.50
2018-04-12T00:07:49.734Z,10.50
2018-04-12T00:08:56.532Z,11.10
2018-04-12T00:10:03.249Z,10.20
2018-04-12T00:11:10.005Z,9.50
2018-04-12T00:12:16.736Z,9.40
2018-04-12T00:13:23.486Z,9.70
2018-04-12T00:14:30.191Z,9.50
2018-04-12T00:15:36.972Z,10.90
2018-04-12T00:16:43.691Z,9.60
2018-04-12T00:17:50.402Z,10.80
2018-04-12T00:18:57.134Z,11.40
2018-04-12T00:20:03.887Z,10.00
2018-04-12T00:21:10.665Z,9.80
2018-04-12T00:22:17.410Z,12.90
2018-04-12T00:23:24.176Z,10.80
2018-04-12T00:24:30.971Z,10.30
2018-04-12T00:25:37.688Z,10.20
2018-04-12T00:26:44.447Z,13.50
2018-04-12T00:27:51.191Z,9.70
2018-04-12T00:28:58.002Z,9.70
2018-04-12T00:30:04.767Z,12.90
2018-04-12T00:31:11.579Z,10.10
2018-04-12T00:32:18.295Z,10.20
2018-04-12T00:33:25.068Z,10.20
2018-04-12T00:34:31.851Z,10.70
2018-04-12T00:35:38.637Z,11.40
2018-04-12T00:36:45.354Z,9.70
2018-04-12T00:37:52.091Z,10.00
2018-04-12T00:38:58.951Z,11.10
2018-04-12T00:40:05.743Z,10.80
2018-04-12T00:41:12.523Z,9.90
2018-04-12T00:42:19.297Z,9.40
2018-04-12T00:43:26.026Z,10.10
2018-04-12T00:44:32.887Z,10.00
2018-04-12T00:45:39.609Z,10.40
2018-04-12T00:46:46.355Z,10.40
2018-04-12T00:47:53.091Z,10.90
2018-04-12T00:48:59.834Z,10.70
2018-04-12T00:50:06.588Z,10.80
2018-04-12T00:51:13.401Z,9.90
2018-04-12T00:52:20.234Z,10.30
2018-04-12T00:53:26.911Z,10.30
2018-04-12T00:54:33.820Z,9.80
2018-04-12T00:55:40.643Z,9.40
2018-04-12T00:56:47.335Z,10.30
2018-04-12T00:57:54.244Z,11.10
2018-04-12T00:59:00.967Z,11.50
2018-04-12T01:00:07.737Z,12.90
2018-04-12T01:01:14.481Z,10.70
2018-04-12T01:02:21.219Z,10.40
2018-04-12T01:03:27.927Z,9.80
2018-04-12T01:04:34.643Z,10.20
2018-04-12T01:05:41.623Z,9.80
2018-04-12T01:06:48.330Z,10.70
2018-04-12T01:07:55.137Z,9.50
2018-04-12T01:09:01.857Z,9.30
2018-04-12T01:10:08.877Z,9.40
2018-04-12T01:11:15.603Z,9.60
2018-04-12T01:12:22.371Z,8.90
2018-04-12T01:13:29.153Z,9.20
2018-04-12T01:14:35.859Z,9.30
2018-04-12T01:15:42.608Z,9.70
2018-04-12T01:16:49.342Z,9.00
2018-04-12T01:17:56.303Z,10.10
2018-04-12T01:19:03.009Z,9.40
2018-04-12T01:20:09.809Z,9.40
2018-04-12T01:21:16.635Z,9.20
2018-04-12T01:22:23.343Z,10.40
2018-04-12T01:23:30.057Z,9.90
2018-04-12T01:24:36.855Z,9.80
2018-04-12T01:25:43.671Z,9.00
2018-04-12T01:26:50.439Z,9.40
2018-04-12T01:27:57.123Z,9.10
2018-04-12T01:29:03.867Z,10.80
2018-04-12T01:30:10.581Z,9.40
2018-04-12T01:31:17.465Z,9.10
2018-04-12T01:32:24.230Z,9.10
2018-04-12T01:33:30.994Z,9.10
2018-04-12T01:34:38.027Z,9.50
2018-04-12T01:35:44.860Z,10.30
2018-04-12T01:36:51.580Z,8.00
2018-04-12T01:37:58.294Z,10.70
2018-04-12T01:39:05.128Z,10.30
2018-04-12T01:40:11.836Z,9.10
2018-04-12T01:41:18.596Z,8.20
2018-04-12T01:42:25.271Z,8.70
2018-04-12T01:43:31.990Z,9.10
2018-04-12T01:44:38.948Z,9.50
2018-04-12T01:45:45.710Z,9.70
2018-04-12T01:46:52.449Z,13.20
2018-04-12T01:47:59.258Z,9.40
2018-04-12T01:49:06.006Z,9.30
2018-04-12T01:50:12.743Z,8.90
2018-04-12T01:51:19.487Z,10.70
2018-04-12T01:52:26.335Z,8.90
2018-04-12T01:53:33.157Z,9.00
2018-04-12T01:54:39.943Z,8.60
2018-04-12T01:55:46.767Z,9.60
2018-04-12T01:56:53.519Z,9.90
2018-04-12T01:58:00.299Z,8.40
2018-04-12T01:59:07.032Z,7.90
2018-04-12T02:00:13.920Z,7.80
2018-04-12T02:01:20.713Z,8.40
2018-04-12T02:02:27.466Z,8.30
2018-04-12T02:03:34.259Z,8.80
2018-04-12T02:04:41.097Z,9.20
2018-04-12T02:05:47.893Z,9.50
2018-04-12T02:06:54.716Z,10.10
2018-04-12T02:08:01.462Z,9.70
2018-04-12T02:09:08.218Z,7.80
2018-04-12T02:10:14.945Z,8.40
2018-04-12T02:11:21.775Z,8.40
2018-04-12T02:12:28.669Z,9.30
2018-04-12T02:13:35.531Z,8.40
2018-04-12T02:14:42.343Z,7.80
2018-04-12T02:15:49.091Z,9.60
2018-04-12T02:16:55.979Z,7.90
2018-04-12T02:18:02.772Z,9.70
2018-04-12T02:19:09.516Z,10.00
2018-04-12T02:20:16.279Z,8.70
2018-04-12T02:21:23.118Z,8.60
2018-04-12T02:22:30.001Z,9.90
2018-04-12T02:23:36.862Z,8.60
2018-04-12T02:24:43.618Z,9.20
2018-04-12T02:25:50.446Z,8.50
2018-04-12T02:26:57.332Z,9.60
2018-04-12T02:28:04.139Z,8.00
2018-04-12T02:29:10.890Z,8.50
2018-04-12T02:30:17.588Z,8.40
2018-04-12T02:31:24.377Z,9.40
2018-04-12T02:32:31.172Z,9.10
2018-04-12T02:33:37.905Z,8.20
2018-04-12T02:34:44.644Z,8.50
2018-04-12T02:35:51.433Z,9.00
2018-04-12T02:36:58.184Z,8.70
2018-04-12T02:38:04.984Z,8.80
2018-04-12T02:39:11.863Z,8.50
2018-04-12T02:40:18.602Z,8.10
2018-04-12T02:41:25.405Z,8.10
2018-04-12T02:42:32.306Z,10.10
2018-04-12T02:43:39.030Z,8.10
2018-04-12T02:44:45.825Z,8.30
2018-04-12T02:45:52.567Z,8.30
2018-04-12T02:46:59.356Z,7.70
2018-04-12T02:48:06.131Z,8.30
2018-04-12T02:49:12.872Z,9.70
2018-04-12T02:50:19.628Z,8.60
2018-04-12T02:51:26.397Z,8.20
2018-04-12T02:52:33.251Z,10.30
2018-04-12T02:53:40.019Z,8.70
2018-04-12T02:54:46.842Z,9.00
2018-04-12T02:55:53.580Z,8.60
2018-04-12T02:57:00.337Z,7.50
2018-04-12T02:58:07.067Z,8.00
2018-04-12T02:59:13.895Z,8.60
2018-04-12T03:00:20.589Z,9.10
2018-04-12T03:01:27.374Z,7.90
2018-04-12T03:02:34.130Z,7.20
2018-04-12T03:03:40.877Z,9.60
2018-04-12T03:04:47.644Z,8.10
2018-04-12T03:05:54.443Z,8.80
2018-04-12T03:07:01.150Z,8.60
2018-04-12T03:08:08.074Z,7.50
2018-04-12T03:09:14.844Z,8.40
2018-04-12T03:10:21.578Z,8.50
2018-04-12T03:11:28.331Z,8.70
2018-04-12T03:12:35.144Z,8.20
2018-04-12T03:13:41.850Z,10.10
2018-04-12T03:14:48.572Z,8.10
2018-04-12T03:15:55.306Z,9.10
2018-04-12T03:17:02.123Z,9.40
2018-04-12T03:18:08.861Z,8.10
2018-04-12T03:19:15.597Z,8.00
2018-04-12T03:20:22.331Z,8.60
2018-04-12T03:21:29.055Z,6.70
2018-04-12T03:22:35.779Z,7.80
2018-04-12T03:23:42.596Z,9.80
2018-04-12T03:24:49.351Z,8.20
2018-04-12T03:25:56.152Z,9.20
2018-04-12T03:27:03.035Z,8.30
2018-04-12T03:28:09.743Z,8.50
2018-04-12T03:29:16.506Z,9.40
2018-04-12T03:30:23.238Z,7.60
2018-04-12T03:31:30.062Z,9.30
2018-04-12T03:32:36.797Z,8.90
2018-04-12T03:33:43.537Z,8.20
2018-04-12T03:34:50.327Z,8.40
2018-04-12T03:35:57.041Z,8.40
2018-04-12T03:37:03.835Z,7.90
2018-04-12T03:38:10.606Z,8.00
2018-04-12T03:39:17.367Z,7.50
2018-04-12T03:40:24.195Z,8.20
2018-04-12T03:41:30.914Z,7.80
2018-04-12T03:42:37.651Z,7.50
2018-04-12T03:43:44.392Z,8.50
2018-04-12T03:44:51.141Z,11.80
2018-04-12T03:45:57.827Z,10.50
2018-04-12T03:47:04.632Z,8.60
2018-04-12T03:48:11.355Z,8.40
2018-04-12T03:49:18.171Z,8.90
2018-04-12T03:50:24.887Z,8.00
2018-04-12T03:51:31.679Z,7.60
2018-04-12T03:52:38.452Z,7.60
2018-04-12T03:53:45.186Z,7.60
2018-04-12T03:54:51.947Z,8.30
2018-04-12T03:55:58.738Z,7.70
2018-04-12T03:57:05.514Z,7.80
2018-04-12T03:58:12.311Z,8.40
2018-04-12T03:59:19.161Z,8.10
2018-04-12T04:00:25.942Z,11.90
2018-04-12T04:01:32.738Z,8.40
2018-04-12T04:02:39.576Z,9.40
2018-04-12T04:03:46.310Z,7.30
2018-04-12T04:04:53.128Z,9.00
2018-04-12T04:05:59.852Z,8.50
2018-04-12T04:07:06.628Z,8.60
2018-04-12T04:08:13.364Z,8.10
2018-04-12T04:09:20.119Z,9.40
2018-04-12T04:10:26.869Z,9.00
2018-04-12T04:11:33.655Z,9.80
2018-04-12T04:12:40.385Z,7.90
2018-04-12T04:13:47.192Z,9.10
2018-04-12T04:14:54.107Z,9.30
2018-04-12T04:16:00.962Z,9.30
2018-04-12T04:18:15.380Z,9.40
2018-04-12T04:20:26.436Z,10.10
2018-04-12T04:21:33.412Z,13.00
2018-04-12T04:22:40.150Z,12.20
2018-04-12T04:23:47.145Z,9.70
2018-04-12T04:24:53.933Z,9.40
2018-04-12T04:26:00.724Z,9.60
2018-04-12T04:27:07.532Z,9.80
2018-04-12T04:28:14.292Z,13.90
2018-04-12T04:29:21.055Z,8.50
2018-04-12T04:30:27.771Z,13.40
2018-04-12T04:31:34.616Z,13.40
2018-04-12T04:32:41.381Z,10.90
2018-04-12T04:33:48.115Z,10.20
2018-04-12T04:34:54.860Z,11.70
2018-04-12T04:36:01.683Z,10.60
2018-04-12T04:37:08.463Z,11.00
2018-04-12T04:38:15.222Z,13.30
2018-04-12T04:39:21.974Z,12.50
2018-04-12T04:40:28.963Z,14.10
2018-04-12T04:41:35.757Z,12.80
2018-04-12T04:42:42.552Z,12.30
2018-04-12T04:43:49.283Z,11.00
2018-04-12T04:44:56.044Z,10.10
2018-04-12T04:46:02.919Z,12.00
2018-04-12T04:47:09.672Z,12.20
2018-04-12T04:48:16.499Z,13.10
2018-04-12T04:49:23.314Z,11.50
2018-04-12T04:50:30.083Z,9.80
2018-04-12T04:51:36.851Z,9.70
2018-04-12T04:52:43.627Z,9.30
2018-04-12T04:53:50.370Z,12.40
2018-04-12T04:54:57.113Z,10.00
2018-04-12T04:56:03.818Z,13.10
2018-04-12T04:57:10.576Z,10.20
2018-04-12T04:58:17.432Z,12.70
2018-04-12T04:59:24.198Z,11.60
2018-04-12T05:00:30.923Z,11.40
2018-04-12T05:01:37.641Z,10.30
2018-04-12T05:02:44.489Z,12.10
2018-04-12T05:03:51.202Z,13.30
2018-04-12T05:04:57.922Z,12.80
2018-04-12T05:06:04.703Z,14.00
2018-04-12T05:07:11.523Z,11.80
2018-04-12T05:08:18.247Z,11.10
2018-04-12T05:09:25.060Z,12.00
2018-04-12T05:10:31.932Z,12.90
2018-04-12T05:11:38.686Z,15.40
2018-04-12T05:12:45.514Z,13.20
2018-04-12T05:13:52.342Z,13.70
2018-04-12T05:14:59.080Z,11.50
2018-04-12T05:16:05.828Z,12.50
2018-04-12T05:17:12.543Z,9.90
2018-04-12T05:18:19.275Z,12.60
2018-04-12T05:19:26.038Z,14.10
2018-04-12T05:20:32.776Z,13.10
2018-04-12T05:21:39.543Z,15.70
2018-04-12T05:22:46.422Z,15.60
2018-04-12T05:23:53.388Z,15.90
2018-04-12T05:25:00.223Z,15.30
2018-04-12T05:26:06.959Z,14.60
2018-04-12T05:27:13.829Z,13.40
2018-04-12T05:28:20.619Z,15.40
2018-04-12T05:29:27.366Z,12.90
2018-04-12T05:30:34.138Z,13.50
2018-04-12T05:31:40.865Z,14.40
2018-04-12T05:32:47.665Z,12.90
2018-04-12T05:33:54.507Z,14.20
2018-04-12T05:35:01.473Z,12.10
2018-04-12T05:36:08.151Z,14.60
2018-04-12T05:37:14.992Z,24.00
2018-04-12T05:38:22.184Z,16.90
2018-04-12T05:39:29.052Z,14.90
2018-04-12T05:40:35.790Z,21.30
2018-04-12T05:41:42.539Z,22.30
2018-04-12T05:42:49.343Z,23.10
2018-04-12T05:43:57.827Z,22.20
2018-04-12T05:45:03.318Z,19.80
2018-04-12T05:46:10.043Z,19.90
2018-04-12T05:47:16.783Z,29.20
2018-04-12T05:48:23.485Z,22.50
2018-04-12T05:49:30.287Z,25.60
2018-04-12T05:50:37.040Z,30.20
2018-04-12T05:51:43.778Z,25.80
2018-04-12T05:52:50.626Z,24.10
2018-04-12T05:53:57.338Z,24.90
2018-04-12T05:55:04.123Z,26.20
2018-04-12T05:56:10.891Z,27.00
2018-04-12T05:57:17.638Z,26.70
2018-04-12T05:58:24.401Z,31.60
2018-04-12T05:59:31.162Z,30.00
2018-04-12T06:00:37.951Z,27.80
2018-04-12T06:01:44.704Z,33.90
2018-04-12T06:02:51.479Z,23.50
2018-04-12T06:03:58.220Z,29.30
2018-04-12T06:05:04.994Z,29.20
2018-04-12T06:06:11.836Z,28.50
2018-04-12T06:07:18.616Z,27.60
2018-04-12T06:08:25.462Z,35.60
2018-04-12T06:09:32.223Z,32.30
2018-04-12T06:10:38.981Z,34.90
2018-04-12T06:11:45.744Z,39.00
2018-04-12T06:12:52.505Z,36.40
2018-04-12T06:13:59.264Z,33.80
2018-04-12T06:15:06.006Z,34.30
2018-04-12T06:16:12.753Z,35.10
2018-04-12T06:17:19.504Z,33.50
2018-04-12T06:18:26.250Z,37.80
2018-04-12T06:19:32.996Z,36.20
2018-04-12T06:20:39.738Z,39.10
2018-04-12T06:21:46.515Z,37.10
2018-04-12T06:22:53.341Z,35.40
2018-04-12T06:24:00.078Z,41.20
2018-04-12T06:25:06.948Z,42.40
2018-04-12T06:26:13.822Z,45.20
2018-04-12T06:27:20.662Z,40.80
2018-04-12T06:28:27.405Z,40.60
2018-04-12T06:29:34.116Z,39.10
2018-04-12T06:30:40.900Z,40.20
2018-04-12T06:31:47.655Z,43.80
2018-04-12T06:32:54.440Z,42.90
2018-04-12T06:34:01.163Z,46.10
2018-04-12T06:35:07.938Z,44.80
2018-04-12T06:36:14.699Z,41.80
2018-04-12T06:37:21.451Z,37.50
2018-04-12T06:38:28.192Z,38.50
2018-04-12T06:39:34.963Z,41.00
2018-04-12T06:40:41.683Z,46.40
2018-04-12T06:41:48.458Z,45.30
2018-04-12T06:42:55.198Z,49.40
2018-04-12T06:44:01.978Z,45.70
2018-04-12T06:45:08.827Z,46.60
2018-04-12T06:46:15.581Z,51.60
2018-04-12T06:47:22.346Z,43.00
2018-04-12T06:48:29.209Z,46.90
2018-04-12T06:49:36.043Z,49.60
2018-04-12T06:50:42.788Z,43.70
2018-04-12T06:51:49.565Z,45.50
2018-04-12T06:52:56.328Z,45.20
2018-04-12T06:54:03.188Z,39.50
2018-04-12T06:55:09.911Z,42.70
2018-04-12T06:56:16.731Z,43.10
2018-04-12T06:57:23.601Z,42.00
2018-04-12T06:58:30.367Z,46.90
2018-04-12T06:59:37.098Z,53.20
2018-04-12T07:00:43.799Z,48.70
2018-04-12T07:01:50.580Z,55.60
2018-04-12T07:02:57.278Z,45.80
2018-04-12T07:04:04.027Z,46.70
2018-04-12T07:05:10.756Z,51.90
2018-04-12T07:06:17.593Z,48.20
2018-04-12T07:07:24.299Z,51.30
2018-04-12T07:08:31.043Z,44.80
2018-04-12T07:09:37.779Z,47.40
2018-04-12T07:10:44.464Z,46.20
2018-04-12T07:11:51.256Z,45.50
2018-04-12T07:12:58.025Z,52.80
2018-04-12T07:14:04.756Z,46.80
2018-04-12T07:15:11.453Z,46.90
2018-04-12T07:16:18.195Z,43.00
2018-04-12T07:17:24.923Z,42.80
2018-04-12T07:18:31.630Z,41.60
2018-04-12T07:19:38.387Z,43.60
2018-04-12T07:20:45.119Z,37.90
2018-04-12T07:21:51.827Z,39.40
2018-04-12T07:22:58.671Z,40.60
2018-04-12T07:24:05.363Z,44.10
2018-04-12T07:25:12.121Z,44.40
2018-04-12T07:26:18.900Z,43.80
2018-04-12T07:27:25.745Z,45.00
2018-04-12T07:28:32.644Z,41.50
2018-04-12T07:29:39.395Z,40.80
2018-04-12T07:30:46.129Z,42.50
2018-04-12T07:31:52.835Z,44.50
2018-04-12T07:32:59.576Z,40.70
2018-04-12T07:34:06.266Z,43.80
2018-04-12T07:35:13.040Z,40.40
2018-04-12T07:36:19.796Z,38.50
2018-04-12T07:37:26.647Z,47.60
2018-04-12T07:38:33.578Z,42.60
2018-04-12T07:39:40.327Z,42.00
2018-04-12T07:40:47.100Z,46.90
2018-04-12T07:41:53.867Z,47.80
2018-04-12T07:43:00.608Z,46.00
2018-04-12T07:44:07.311Z,41.40
2018-04-12T07:45:14.038Z,40.70
2018-04-12T07:46:20.740Z,46.00
2018-04-12T07:47:27.486Z,43.40
2018-04-12T07:48:34.192Z,44.80
2018-04-12T07:49:40.963Z,46.00
2018-04-12T07:50:47.678Z,47.90
2018-04-12T07:51:54.479Z,43.40
2018-04-12T07:53:01.217Z,40.00
2018-04-12T07:54:08.025Z,41.30
2018-04-12T07:55:14.849Z,42.80
2018-04-12T07:56:26.707Z,48.20
2018-04-12T07:57:33.477Z,42.40
2018-04-12T07:58:35.268Z,37.20
2018-04-12T07:59:42.031Z,44.70
2018-04-12T08:00:48.895Z,46.40
2018-04-12T08:01:55.758Z,45.70
2018-04-12T08:03:02.669Z,41.50
2018-04-12T08:04:09.402Z,41.10
2018-04-12T08:05:16.172Z,41.30
2018-04-12T08:06:22.929Z,41.40
2018-04-12T08:07:29.736Z,39.20
2018-04-12T08:08:36.459Z,37.70
2018-04-12T08:09:43.248Z,39.00
2018-04-12T08:10:50.040Z,37.60
2018-04-12T08:11:56.881Z,38.00
2018-04-12T08:13:03.623Z,44.00
2018-04-12T08:14:10.451Z,41.90
2018-04-12T08:15:17.184Z,41.30
2018-04-12T08:16:24.019Z,40.90
2018-04-12T08:17:30.819Z,41.50
2018-04-12T08:18:37.530Z,41.30
2018-04-12T08:19:44.285Z,40.60
2018-04-12T08:20:51.080Z,42.40
2018-04-12T08:21:57.898Z,40.40
2018-04-12T08:23:04.839Z,40.60
2018-04-12T08:24:11.649Z,41.70
2018-04-12T08:25:18.626Z,41.10
2018-04-12T08:26:25.382Z,37.90
2018-04-12T08:27:32.239Z,38.20
2018-04-12T08:28:38.998Z,38.80
2018-04-12T08:29:45.728Z,34.60
2018-04-12T08:30:52.463Z,39.80
2018-04-12T08:31:59.271Z,42.80
2018-04-12T08:33:06.047Z,35.50
2018-04-12T08:34:12.770Z,41.70
2018-04-12T08:35:19.495Z,44.50
2018-04-12T08:36:26.238Z,46.20
2018-04-12T08:37:33.072Z,41.40
2018-04-12T08:38:39.830Z,39.00
2018-04-12T08:39:46.587Z,37.30
2018-04-12T08:40:53.292Z,35.10
2018-04-12T08:42:00.110Z,36.90
2018-04-12T08:43:06.850Z,38.20
2018-04-12T08:44:13.575Z,41.60
2018-04-12T08:45:20.287Z,37.90
2018-04-12T08:46:27.011Z,38.40
2018-04-12T08:47:03.306Z,36.10
2018-04-12T08:48:10.301Z,36.10
2018-04-12T08:49:16.994Z,38.60
2018-04-12T08:50:23.755Z,35.90
2018-04-12T08:51:30.515Z,37.20
2018-04-12T08:52:37.267Z,35.50
2018-04-12T08:53:44.081Z,34.10
2018-04-12T08:54:50.822Z,35.70
2018-04-12T08:55:57.565Z,36.80
2018-04-12T08:57:04.335Z,37.00
2018-04-12T08:58:11.366Z,39.40
2018-04-12T08:59:18.149Z,36.20
2018-04-12T09:00:24.946Z,40.90
2018-04-12T09:01:31.711Z,37.80
2018-04-12T09:02:38.519Z,37.60
2018-04-12T09:03:45.336Z,37.40
2018-04-12T09:04:52.064Z,39.70
2018-04-12T09:05:58.815Z,36.00
2018-04-12T09:07:05.560Z,38.10
2018-04-12T09:08:12.654Z,40.60
2018-04-12T09:09:19.488Z,41.20
2018-04-12T09:10:26.209Z,36.90
2018-04-12T09:11:33.243Z,37.20
2018-04-12T09:12:39.992Z,35.70
2018-04-12T09:13:46.759Z,38.00
2018-04-12T09:14:53.522Z,33.00
2018-04-12T09:16:00.288Z,35.10
2018-04-12T09:17:06.987Z,34.20
2018-04-12T09:18:13.760Z,32.80
2018-04-12T09:19:20.520Z,34.00
2018-04-12T09:20:27.323Z,34.50
2018-04-12T09:21:34.055Z,31.10
2018-04-12T09:22:40.863Z,32.30
2018-04-12T09:23:47.607Z,30.80
2018-04-12T09:24:54.384Z,35.70
2018-04-12T09:26:01.210Z,34.50
2018-04-12T09:27:08.034Z,34.90
2018-04-12T09:28:14.746Z,39.00
2018-04-12T09:29:21.519Z,35.40
2018-04-12T09:30:28.363Z,34.00
2018-04-12T09:31:35.133Z,35.40
2018-04-12T09:32:41.843Z,35.10
2018-04-12T09:33:48.598Z,33.90
2018-04-12T09:34:55.424Z,32.40
2018-04-12T09:36:02.145Z,32.70
2018-04-12T09:37:08.984Z,33.40
2018-04-12T09:38:15.727Z,36.00
2018-04-12T09:39:22.599Z,33.30
2018-04-12T09:40:29.399Z,33.80
2018-04-12T09:41:36.125Z,32.80
2018-04-12T09:42:42.910Z,33.30
2018-04-12T09:43:49.647Z,34.70
2018-04-12T09:44:56.410Z,35.80
2018-04-12T09:46:03.176Z,34.10
2018-04-12T09:47:10.067Z,33.80
2018-04-12T09:48:16.830Z,32.70
2018-04-12T09:49:23.630Z,35.40
2018-04-12T09:50:30.375Z,34.80
2018-04-12T09:51:37.119Z,36.20
2018-04-12T09:52:43.919Z,31.10
2018-04-12T09:53:50.775Z,32.50
2018-04-12T09:54:57.526Z,35.90
2018-04-12T09:56:04.387Z,33.80
2018-04-12T09:57:11.176Z,31.10
2018-04-12T09:58:17.909Z,36.80
2018-04-12T09:59:24.711Z,33.20
2018-04-12T10:00:31.709Z,34.80
2018-04-12T10:01:38.699Z,33.70
2018-04-12T10:02:45.491Z,34.30
2018-04-12T10:03:52.291Z,35.20
2018-04-12T10:04:59.355Z,38.70
2018-04-12T10:06:06.238Z,35.00
2018-04-12T10:07:12.963Z,38.90
2018-04-12T10:08:19.764Z,30.80
2018-04-12T10:09:26.607Z,29.70
2018-04-12T10:10:33.417Z,31.90
2018-04-12T10:11:40.184Z,30.20
2018-04-12T10:12:47.022Z,29.30
2018-04-12T10:13:53.751Z,28.10
2018-04-12T10:15:00.519Z,29.10
2018-04-12T10:16:07.302Z,31.80
2018-04-12T10:17:14.091Z,31.00
2018-04-12T10:18:20.830Z,28.50
2018-04-12T10:19:27.572Z,29.40
2018-04-12T10:20:34.308Z,25.50
2018-04-12T10:21:41.164Z,26.00
2018-04-12T10:22:47.908Z,27.50
2018-04-12T10:23:54.680Z,28.00
2018-04-12T10:25:01.550Z,28.30
2018-04-12T10:26:08.365Z,24.80
2018-04-12T10:27:15.166Z,26.60
2018-04-12T10:28:39.308Z,26.30
2018-04-12T10:29:46.143Z,26.60
2018-04-12T10:30:52.886Z,25.60
2018-04-12T10:31:59.716Z,24.50
2018-04-12T10:33:06.546Z,29.80
2018-04-12T10:34:13.317Z,23.10
2018-04-12T10:35:20.087Z,26.40
2018-04-12T10:36:26.818Z,24.70
2018-04-12T10:37:33.626Z,24.30
2018-04-12T10:38:40.507Z,24.10
2018-04-12T10:39:47.360Z,23.60
2018-04-12T10:40:54.094Z,23.20
2018-04-12T10:42:00.866Z,27.60
2018-04-12T10:43:07.619Z,28.30
2018-04-12T10:44:14.414Z,25.90
2018-04-12T10:45:21.230Z,26.20
2018-04-12T10:46:28.095Z,25.20
2018-04-12T10:47:34.884Z,24.80
2018-04-12T10:48:41.639Z,24.40
2018-04-12T10:49:48.378Z,25.20
2018-04-12T10:50:55.132Z,24.90
2018-04-12T10:52:01.929Z,26.00
2018-04-12T10:53:08.695Z,25.80
2018-04-12T10:54:15.495Z,26.30
2018-04-12T10:55:22.339Z,27.30
2018-04-12T10:56:29.044Z,26.50
2018-04-12T10:57:35.828Z,24.10
2018-04-12T10:58:42.621Z,25.10
2018-04-12T10:59:49.419Z,23.70
2018-04-12T11:00:56.246Z,23.60
2018-04-12T11:02:02.989Z,24.80
2018-04-12T11:03:09.856Z,25.30
2018-04-12T11:04:16.636Z,26.60
2018-04-12T11:05:23.418Z,23.10
2018-04-12T11:06:30.154Z,25.00
2018-04-12T11:07:37.051Z,23.90
2018-04-12T11:08:43.815Z,24.30
2018-04-12T11:09:50.583Z,24.70
2018-04-12T11:10:57.370Z,22.20
2018-04-12T11:12:04.180Z,23.80
2018-04-12T11:13:10.943Z,22.50
2018-04-12T11:14:17.831Z,22.90
2018-04-12T11:15:24.560Z,20.70
2018-04-12T11:16:31.296Z,23.30
2018-04-12T11:17:38.012Z,23.60
2018-04-12T11:18:44.755Z,21.40
2018-04-12T11:19:51.572Z,20.40
2018-04-12T11:20:58.290Z,25.10
2018-04-12T11:22:05.050Z,22.70
2018-04-12T11:23:11.845Z,22.90
2018-04-12T11:24:18.723Z,21.50
2018-04-12T11:25:25.615Z,20.80
2018-04-12T11:26:32.459Z,20.60
2018-04-12T11:27:39.186Z,21.60
2018-04-12T11:28:46.027Z,23.20
2018-04-12T11:29:52.916Z,21.70
2018-04-12T11:30:59.637Z,21.30
2018-04-12T11:32:06.367Z,21.80
2018-04-12T11:33:13.075Z,22.90
2018-04-12T11:34:19.877Z,22.40
2018-04-12T11:35:26.632Z,21.90
2018-04-12T11:36:33.342Z,20.60
2018-04-12T11:37:40.079Z,21.90
2018-04-12T11:38:47.131Z,21.10
2018-04-12T11:39:53.882Z,21.60
2018-04-12T11:41:00.651Z,22.00
2018-04-12T11:42:07.510Z,22.80
2018-04-12T11:43:14.236Z,25.40
2018-04-12T11:44:20.982Z,20.70
2018-04-12T11:45:27.746Z,22.50
2018-04-12T11:46:34.628Z,20.90
2018-04-12T11:47:41.451Z,20.80
2018-04-12T11:48:48.518Z,27.20
2018-04-12T11:49:55.292Z,26.00
2018-04-12T11:51:02.056Z,23.80
2018-04-12T11:52:08.842Z,24.30
2018-04-12T11:53:15.567Z,23.00
2018-04-12T11:54:22.306Z,26.00
2018-04-12T11:55:29.057Z,26.00
2018-04-12T11:56:36.012Z,24.50
2018-04-12T11:57:42.847Z,26.40
2018-04-12T11:58:49.652Z,22.80
2018-04-12T11:59:56.435Z,24.90
2018-04-12T12:01:03.192Z,26.20
2018-04-12T12:02:09.948Z,25.00
2018-04-12T12:03:16.682Z,27.10
2018-04-12T12:04:23.485Z,29.10
2018-04-12T12:05:30.503Z,28.70
2018-04-12T12:06:37.290Z,26.90
2018-04-12T12:07:44.010Z,27.20
2018-04-12T12:08:50.722Z,28.00
2018-04-12T12:09:57.474Z,27.20
2018-04-12T12:11:04.247Z,28.90
2018-04-12T12:12:10.975Z,24.20
2018-04-12T12:13:17.748Z,25.40
2018-04-12T12:14:24.484Z,27.40
2018-04-12T12:15:31.213Z,24.70
2018-04-12T12:16:38.074Z,23.30
2018-04-12T12:17:44.884Z,19.60
2018-04-12T12:18:51.575Z,21.00
2018-04-12T12:19:58.287Z,21.40
2018-04-12T12:21:05.110Z,22.20
2018-04-12T12:22:12.114Z,20.60
2018-04-12T12:23:18.978Z,21.40
2018-04-12T12:24:25.702Z,21.40
2018-04-12T12:25:32.787Z,22.20
2018-04-12T12:26:39.597Z,21.30
2018-04-12T12:27:46.376Z,22.00
2018-04-12T12:28:53.121Z,25.50
2018-04-12T12:29:59.880Z,23.70
2018-04-12T12:31:06.624Z,22.00
2018-04-12T12:32:13.362Z,21.50
2018-04-12T12:33:20.171Z,22.90
2018-04-12T12:34:26.920Z,23.20
2018-04-12T12:35:33.667Z,21.90
2018-04-12T12:36:40.387Z,22.20
2018-04-12T12:37:47.247Z,22.60
2018-04-12T12:38:54.019Z,21.90
2018-04-12T12:40:00.742Z,23.20
2018-04-12T12:41:07.639Z,22.50
2018-04-12T12:42:14.415Z,22.30
2018-04-12T12:43:21.159Z,25.60
2018-04-12T12:44:27.882Z,21.80
2018-04-12T12:45:34.699Z,20.30
2018-04-12T12:46:41.411Z,19.80
2018-04-12T12:47:48.176Z,20.80
2018-04-12T12:48:54.886Z,20.10
2018-04-12T12:50:01.592Z,20.70
2018-04-12T12:51:08.431Z,20.30
2018-04-12T12:52:15.208Z,22.40
2018-04-12T12:53:21.993Z,20.80
2018-04-12T12:54:28.727Z,19.90
2018-04-12T12:55:35.812Z,19.10
2018-04-12T12:56:42.661Z,20.70
2018-04-12T12:57:49.442Z,20.30
2018-04-12T12:58:56.199Z,19.70
2018-04-12T13:00:03.014Z,19.40
2018-04-12T13:01:10.078Z,20.20
2018-04-12T13:02:16.899Z,20.10
2018-04-12T13:03:23.727Z,19.60
2018-04-12T13:04:30.575Z,19.10
2018-04-12T13:05:37.352Z,19.70
2018-04-12T13:06:44.164Z,18.30
2018-04-12T13:07:50.931Z,19.00
2018-04-12T13:08:57.786Z,19.00
2018-04-12T13:10:04.525Z,19.60
2018-04-12T13:11:11.311Z,18.90
2018-04-12T13:12:18.044Z,18.70
2018-04-12T13:13:24.852Z,20.50
2018-04-12T13:14:31.651Z,18.80
2018-04-12T13:15:38.391Z,19.50
2018-04-12T13:16:45.122Z,19.60
2018-04-12T13:17:51.895Z,18.00
2018-04-12T13:18:58.684Z,18.50
2018-04-12T13:20:05.448Z,18.20
2018-04-12T13:21:12.225Z,18.00
2018-04-12T13:22:19.016Z,18.70
2018-04-12T13:23:25.783Z,19.50
2018-04-12T13:24:32.611Z,18.40
2018-04-12T13:25:39.422Z,17.50
2018-04-12T13:26:46.222Z,18.30
2018-04-12T13:27:53.030Z,17.10
2018-04-12T13:28:59.866Z,18.20
2018-04-12T13:30:06.664Z,18.10
2018-04-12T13:31:13.421Z,17.20
2018-04-12T13:32:20.252Z,18.10
2018-04-12T13:33:27.106Z,18.00
2018-04-12T13:34:33.866Z,17.40
2018-04-12T13:35:40.691Z,16.40
2018-04-12T13:36:47.435Z,17.30
2018-04-12T13:37:54.192Z,18.50
2018-04-12T13:39:00.951Z,17.40
2018-04-12T13:40:08.065Z,16.00
2018-04-12T13:41:14.791Z,16.40
2018-04-12T13:42:21.571Z,16.50
2018-04-12T13:43:28.391Z,17.60
2018-04-12T13:44:35.118Z,15.90
2018-04-12T13:45:41.887Z,15.60
2018-04-12T13:46:48.679Z,17.50
2018-04-12T13:47:55.443Z,16.60
2018-04-12T13:49:02.263Z,16.30
2018-04-12T13:50:09.054Z,18.40
2018-04-12T13:51:15.823Z,18.20
2018-04-12T13:52:22.639Z,17.00
2018-04-12T13:53:29.519Z,17.50
2018-04-12T13:54:36.286Z,20.00
2018-04-12T13:55:43.055Z,19.40
2018-04-12T13:56:49.783Z,18.70
2018-04-12T13:57:56.670Z,18.30
2018-04-12T13:59:03.497Z,17.10
2018-04-12T14:00:10.255Z,17.90
2018-04-12T14:01:17.063Z,21.20
2018-04-12T14:02:23.841Z,19.80
2018-04-12T14:03:30.581Z,19.10
2018-04-12T14:04:37.484Z,18.40
2018-04-12T14:05:44.244Z,17.90
2018-04-12T14:06:51.005Z,19.10
2018-04-12T14:07:57.905Z,19.80
2018-04-12T14:09:04.611Z,22.20
2018-04-12T14:10:11.395Z,19.10
2018-04-12T14:11:18.119Z,19.80
2018-04-12T14:12:24.894Z,20.50
2018-04-12T14:13:31.698Z,20.40
2018-04-12T14:14:38.545Z,20.60
2018-04-12T14:15:45.374Z,19.50
2018-04-12T14:16:52.091Z,20.50
2018-04-12T14:17:58.849Z,20.60
2018-04-12T14:19:05.606Z,19.10
2018-04-12T14:20:12.348Z,19.60
2018-04-12T14:21:19.138Z,21.00
2018-04-12T14:22:25.870Z,19.90
2018-04-12T14:23:32.640Z,22.10
2018-04-12T14:24:39.383Z,21.50
2018-04-12T14:25:46.226Z,18.70
2018-04-12T14:26:52.984Z,19.80
2018-04-12T14:27:59.719Z,21.80